Time;durP1;ratioP1;P1;durP2;ratioP2;P2;SDS_P1;SDS_P2;PMS_P1;PMS_P2;Temp;Humidity;BMP_temperature;BMP_pressure;BME280_temperature;BME280_humidity;BME280_pressure;Samples;Min_cycle;Max_cycle;Signal;HPM_P1;HPM_P2
2021/07/31 00:02:04;;;;;;;43.63;9.07;;;22.80;88.60;;;;;;4982748;28;20070;-61
2021/07/31 00:04:30;;;;;;;24.90;7.78;;;22.80;88.50;;;;;;4979504;28;20691;-60
2021/07/31 00:06:55;;;;;;;35.55;7.97;;;22.80;88.50;;;;;;4980387;28;20173;-60
2021/07/31 00:09:21;;;;;;;31.83;8.63;;;22.80;88.70;;;;;;4982751;28;20220;-60
2021/07/31 00:11:46;;;;;;;28.50;8.25;;;22.80;88.80;;;;;;4983054;28;20035;-60
2021/07/31 00:14:12;;;;;;;34.25;7.97;;;22.80;88.80;;;;;;4981394;28;20034;-60
2021/07/31 00:16:38;;;;;;;34.00;7.72;;;22.80;88.80;;;;;;4981086;28;20039;-60
2021/07/31 00:19:03;;;;;;;39.42;8.80;;;22.80;88.90;;;;;;4980996;28;20057;-59
2021/07/31 00:21:29;;;;;;;35.42;8.43;;;22.70;88.90;;;;;;4980476;28;20114;-60
2021/07/31 00:23:54;;;;;;;26.10;7.68;;;22.70;89.00;;;;;;4981100;28;20401;-60
2021/07/31 00:26:20;;;;;;;33.45;8.70;;;22.70;89.00;;;;;;4983130;28;20034;-59
2021/07/31 00:28:46;;;;;;;24.48;7.65;;;22.70;89.20;;;;;;4982613;28;20034;-60
2021/07/31 00:31:11;;;;;;;28.42;7.65;;;22.90;89.20;;;;;;4979669;28;20559;-60
2021/07/31 00:33:37;;;;;;;22.75;8.32;;;22.70;89.20;;;;;;4982679;28;20034;-60
2021/07/31 00:36:02;;;;;;;30.58;8.10;;;22.70;89.20;;;;;;4979745;28;20018;-60
2021/07/31 00:38:28;;;;;;;27.23;7.75;;;22.60;89.20;;;;;;4982920;28;20632;-60
2021/07/31 00:40:53;;;;;;;26.95;7.68;;;22.60;89.30;;;;;;4982838;28;20159;-60
2021/07/31 00:43:19;;;;;;;28.27;7.47;;;22.60;89.40;;;;;;4982798;28;20034;-60
2021/07/31 00:45:44;;;;;;;18.60;6.90;;;22.60;89.40;;;;;;4984769;28;20099;-60
2021/07/31 00:48:10;;;;;;;20.77;7.07;;;22.60;89.40;;;;;;4984463;28;20209;-60
2021/07/31 00:50:35;;;;;;;18.48;7.40;;;22.60;89.40;;;;;;4982995;28;20038;-61
2021/07/31 00:53:01;;;;;;;20.70;7.22;;;22.60;89.40;;;;;;4983266;28;20023;-60
2021/07/31 00:55:27;;;;;;;14.52;6.57;;;22.50;89.40;;;;;;4984136;28;20042;-59
2021/07/31 00:57:53;;;;;;;16.85;7.10;;;22.50;89.50;;;;;;4984107;28;20089;-60
2021/07/31 01:00:19;;;;;;;18.00;6.72;;;22.50;89.40;;;;;;4985109;28;20371;-60
2021/07/31 01:02:45;;;;;;;15.95;7.93;;;22.50;89.50;;;;;;4985247;28;20556;-59
2021/07/31 01:05:10;;;;;;;22.08;7.30;;;22.50;89.50;;;;;;4983133;28;20112;-60
2021/07/31 01:07:36;;;;;;;17.17;7.07;;;22.50;89.50;;;;;;4981738;28;20359;-60
2021/07/31 01:10:02;;;;;;;13.48;6.80;;;22.50;89.60;;;;;;4983182;28;20041;-60
2021/07/31 01:12:28;;;;;;;12.05;6.50;;;22.50;89.70;;;;;;4983379;28;20366;-60
2021/07/31 01:14:53;;;;;;;14.82;6.50;;;22.50;89.70;;;;;;4983464;28;20530;-60
2021/07/31 01:17:19;;;;;;;14.88;6.57;;;22.50;89.70;;;;;;4985118;28;20089;-60
2021/07/31 01:19:44;;;;;;;24.65;6.40;;;22.50;89.60;;;;;;4983837;28;20378;-60
2021/07/31 01:22:10;;;;;;;7.97;5.75;;;22.50;89.70;;;;;;4982865;28;20477;-60
2021/07/31 01:24:35;;;;;;;11.13;5.38;;;22.50;89.60;;;;;;4982085;28;20038;-59
2021/07/31 01:27:01;;;;;;;13.07;6.30;;;22.40;89.60;;;;;;4985959;28;20431;-60
2021/07/31 01:29:26;;;;;;;12.40;5.55;;;22.40;89.60;;;;;;4984949;28;20026;-60
2021/07/31 01:31:52;;;;;;;12.88;5.63;;;22.40;89.60;;;;;;4984069;28;20066;-59
2021/07/31 01:34:17;;;;;;;10.48;6.05;;;22.40;89.70;;;;;;4981705;28;20130;-60
2021/07/31 01:36:43;;;;;;;11.43;5.93;;;22.40;89.70;;;;;;4982447;28;20193;-60
2021/07/31 01:39:08;;;;;;;10.07;5.70;;;22.40;89.80;;;;;;4984525;28;20382;-60
2021/07/31 01:41:34;;;;;;;14.25;6.05;;;22.40;90.00;;;;;;4985006;28;20565;-60
2021/07/31 01:43:59;;;;;;;15.43;5.93;;;22.40;90.00;;;;;;4985236;28;20037;-60
2021/07/31 01:46:25;;;;;;;14.90;6.03;;;22.40;89.90;;;;;;4982661;28;20057;-59
2021/07/31 01:48:51;;;;;;;8.93;5.75;;;22.40;90.00;;;;;;4980211;28;20052;-60
2021/07/31 01:51:16;;;;;;;13.02;6.15;;;22.40;90.00;;;;;;4996177;28;20042;-60
2021/07/31 01:53:42;;;;;;;8.27;5.57;;;22.30;90.00;;;;;;4970827;28;20023;-60
2021/07/31 01:56:07;;;;;;;8.90;5.57;;;22.30;90.00;;;;;;4983020;28;20126;-60
2021/07/31 01:58:33;;;;;;;12.18;6.22;;;22.30;90.10;;;;;;4983355;28;20177;-60
2021/07/31 02:00:58;;;;;;;11.35;6.05;;;22.30;90.10;;;;;;4981331;28;20442;-59
2021/07/31 02:03:24;;;;;;;7.03;5.75;;;22.30;90.10;;;;;;4997189;28;20048;-60
2021/07/31 02:05:50;;;;;;;7.80;5.65;;;22.30;90.10;;;;;;4982141;28;20088;-60
2021/07/31 02:08:15;;;;;;;8.88;5.78;;;22.30;90.10;;;;;;4983458;28;20034;-60
2021/07/31 02:10:41;;;;;;;6.45;5.80;;;22.30;90.10;;;;;;4983666;28;20522;-61
2021/07/31 02:13:06;;;;;;;8.93;6.32;;;22.20;90.10;;;;;;4982189;28;20045;-60
2021/07/31 02:15:32;;;;;;;8.02;5.93;;;22.30;90.10;;;;;;4983324;28;20038;-59
2021/07/31 02:17:58;;;;;;;7.28;6.15;;;22.30;90.10;;;;;;4984374;28;20045;-60
2021/07/31 02:20:24;;;;;;;8.40;6.35;;;22.30;90.10;;;;;;4981850;28;20038;-60
2021/07/31 02:22:50;;;;;;;6.80;5.70;;;22.20;90.10;;;;;;4982237;28;20963;-60
2021/07/31 02:25:15;;;;;;;9.73;6.78;;;22.20;90.10;;;;;;4982120;28;20045;-60
2021/07/31 02:27:41;;;;;;;7.82;6.00;;;22.20;90.20;;;;;;4980585;28;20054;-60
2021/07/31 02:30:07;;;;;;;9.30;6.43;;;22.20;90.20;;;;;;4983047;28;20049;-60
2021/07/31 02:32:33;;;;;;;9.73;6.15;;;22.20;90.20;;;;;;4981752;28;20042;-60
2021/07/31 02:34:58;;;;;;;9.68;6.07;;;22.20;90.30;;;;;;4981237;28;20034;-60
2021/07/31 02:37:24;;;;;;;8.77;5.95;;;22.20;90.30;;;;;;4979339;28;20022;-60
2021/07/31 02:39:49;;;;;;;8.75;5.40;;;22.20;90.30;;;;;;4980806;28;20485;-59
2021/07/31 02:42:16;;;;;;;6.03;5.35;;;22.10;90.30;;;;;;4981600;28;20026;-60
2021/07/31 02:44:41;;;;;;;10.88;5.93;;;22.10;90.30;;;;;;4982275;28;20110;-59
2021/07/31 02:47:07;;;;;;;7.82;5.70;;;22.10;90.40;;;;;;4981882;28;20133;-60
2021/07/31 02:49:32;;;;;;;6.97;5.22;;;22.10;90.30;;;;;;4981212;28;20077;-60
2021/07/31 02:51:58;;;;;;;7.32;5.68;;;22.10;90.30;;;;;;4980660;28;20148;-60
2021/07/31 02:54:23;;;;;;;7.10;5.15;;;22.10;90.30;;;;;;4982684;28;20065;-60
2021/07/31 02:56:49;;;;;;;8.52;5.30;;;22.10;90.30;;;;;;4983019;28;20030;-60
2021/07/31 02:59:14;;;;;;;7.18;5.53;;;22.10;90.30;;;;;;4982288;28;20034;-60
2021/07/31 03:01:40;;;;;;;7.78;5.70;;;22.00;90.30;;;;;;4984128;28;20069;-60
2021/07/31 03:04:05;;;;;;;8.60;5.35;;;22.00;90.30;;;;;;4981995;28;20776;-60
2021/07/31 03:06:31;;;;;;;6.78;5.72;;;22.00;90.40;;;;;;4980084;28;20046;-60
2021/07/31 03:08:56;;;;;;;7.47;5.22;;;22.00;90.50;;;;;;4983480;28;20817;-59
2021/07/31 03:11:23;;;;;;;11.35;5.40;;;22.00;90.50;;;;;;4983611;28;20070;-60
2021/07/31 03:13:48;;;;;;;8.32;5.20;;;22.00;90.50;;;;;;4983677;28;20140;-60
2021/07/31 03:16:14;;;;;;;8.05;5.32;;;22.00;90.60;;;;;;4983331;28;20125;-60
2021/07/31 03:18:39;;;;;;;7.25;4.97;;;22.00;90.60;;;;;;4983037;28;20057;-60
2021/07/31 03:21:05;;;;;;;7.35;5.20;;;21.90;90.60;;;;;;4978475;28;20045;-60
2021/07/31 03:23:30;;;;;;;6.68;4.88;;;22.00;90.60;;;;;;4982782;28;20035;-60
2021/07/31 03:25:59;;;;;;;6.97;4.70;;;21.90;90.90;;;;;;4984342;28;20149;-60
2021/07/31 03:28:25;;;;;;;5.47;4.97;;;21.90;90.60;;;;;;4982720;28;20038;-60
2021/07/31 03:30:51;;;;;;;4.70;4.30;;;21.90;90.60;;;;;;4982603;28;20490;-60
2021/07/31 03:33:16;;;;;;;5.95;4.63;;;21.90;90.60;;;;;;4981112;28;20104;-60
2021/07/31 03:35:42;;;;;;;9.30;5.20;;;21.90;90.60;;;;;;4979206;28;20057;-60
2021/07/31 03:38:08;;;;;;;6.72;4.90;;;21.90;90.70;;;;;;4982472;28;20504;-60
2021/07/31 03:40:34;;;;;;;5.43;4.82;;;21.90;90.70;;;;;;4983580;28;20058;-60
2021/07/31 03:42:59;;;;;;;6.05;4.95;;;21.80;91.00;;;;;;4980895;28;20034;-60
2021/07/31 03:45:25;;;;;;;11.10;4.57;;;21.80;90.70;;;;;;4980148;28;20062;-59
2021/07/31 03:47:50;;;;;;;5.90;4.90;;;21.80;90.70;;;;;;4965392;28;20030;-60
2021/07/31 03:50:16;;;;;;;6.40;4.72;;;21.80;90.80;;;;;;4980096;28;20425;-59
2021/07/31 03:52:41;;;;;;;6.82;4.80;;;21.80;90.80;;;;;;4980991;28;20026;-60
2021/07/31 03:55:07;;;;;;;7.55;4.60;;;21.80;90.80;;;;;;4981341;28;20447;-60
2021/07/31 03:57:33;;;;;;;5.00;4.60;;;21.80;90.80;;;;;;4980982;28;20038;-60
2021/07/31 03:59:59;;;;;;;9.70;5.00;;;21.70;90.80;;;;;;4979998;28;20351;-60
2021/07/31 04:02:24;;;;;;;5.78;4.40;;;21.70;90.80;;;;;;4965288;28;20027;-60
2021/07/31 04:04:50;;;;;;;5.90;4.68;;;21.70;90.80;;;;;;4981211;28;20065;-60
2021/07/31 04:07:15;;;;;;;5.50;4.57;;;21.70;90.80;;;;;;4981166;28;20122;-60
2021/07/31 04:09:41;;;;;;;8.07;4.85;;;21.70;90.80;;;;;;4982424;28;20030;-60
2021/07/31 04:12:07;;;;;;;5.40;4.70;;;21.70;90.80;;;;;;4993509;28;20058;-60
2021/07/31 04:14:32;;;;;;;4.95;4.45;;;21.70;90.80;;;;;;4979752;28;21587;-60
2021/07/31 04:16:58;;;;;;;5.82;4.80;;;21.70;90.80;;;;;;4978278;28;20532;-60
2021/07/31 04:19:23;;;;;;;5.88;4.65;;;21.70;90.80;;;;;;4981458;28;20082;-60
2021/07/31 04:21:56;;;;;;;5.45;4.30;;;21.60;90.80;;;;;;4965152;28;20046;-60
2021/07/31 04:24:27;;;;;;;10.40;4.50;;;21.60;90.80;;;;;;4981010;28;20093;-60
2021/07/31 04:26:53;;;;;;;6.82;4.68;;;21.50;90.80;;;;;;4980836;28;20478;-60
2021/07/31 04:29:19;;;;;;;6.40;4.65;;;21.60;90.90;;;;;;4983345;28;20026;-60
2021/07/31 04:31:45;;;;;;;6.20;4.57;;;21.60;90.90;;;;;;4982711;28;20125;-60
2021/07/31 04:34:10;;;;;;;7.07;4.70;;;21.50;91.20;;;;;;4980912;28;20106;-60
2021/07/31 04:36:36;;;;;;;5.53;5.00;;;21.50;91.00;;;;;;4979931;28;20746;-59
2021/07/31 04:39:02;;;;;;;5.35;4.28;;;21.50;91.00;;;;;;4982760;28;20345;-60
2021/07/31 04:41:27;;;;;;;6.78;4.72;;;21.50;91.10;;;;;;4984105;28;20349;-60
2021/07/31 04:43:53;;;;;;;7.63;4.85;;;21.50;91.10;;;;;;4986247;28;21079;-60
2021/07/31 04:46:19;;;;;;;7.18;4.43;;;21.50;91.20;;;;;;4985518;28;20105;-60
2021/07/31 04:48:44;;;;;;;6.13;4.70;;;21.50;91.10;;;;;;4985900;28;20210;-60
2021/07/31 04:51:10;;;;;;;7.80;4.60;;;21.50;91.10;;;;;;4981172;28;20113;-60
2021/07/31 04:53:35;;;;;;;7.40;4.70;;;21.50;91.00;;;;;;4984188;28;20022;-60
2021/07/31 04:56:01;;;;;;;5.13;4.47;;;21.50;91.00;;;;;;4986308;28;20122;-60
2021/07/31 04:58:26;;;;;;;4.82;4.43;;;21.50;91.00;;;;;;4985091;28;20038;-60
2021/07/31 05:00:54;;;;;;;5.53;4.82;;;21.50;91.00;;;;;;4985083;28;20125;-61
2021/07/31 05:03:20;;;;;;;8.07;4.53;;;21.50;91.00;;;;;;4983370;28;20379;-60
2021/07/31 05:05:45;;;;;;;4.95;4.40;;;21.50;91.00;;;;;;4981618;28;20049;-60
2021/07/31 05:08:11;;;;;;;8.27;4.60;;;21.50;91.00;;;;;;4983928;28;20517;-60
2021/07/31 05:10:41;;;;;;;7.93;4.40;;;21.50;91.10;;;;;;4985094;28;20010;-59
2021/07/31 05:13:07;;;;;;;6.10;4.88;;;21.50;91.10;;;;;;4983878;28;20031;-60
2021/07/31 05:15:37;;;;;;;7.70;4.60;;;21.50;91.10;;;;;;4982634;28;20038;-60
2021/07/31 05:18:03;;;;;;;5.05;4.55;;;21.40;91.10;;;;;;4984205;28;20045;-60
2021/07/31 05:20:29;;;;;;;6.43;4.03;;;21.40;91.20;;;;;;4982697;28;20221;-60
2021/07/31 05:22:54;;;;;;;5.78;4.63;;;21.40;91.20;;;;;;4984002;28;20031;-59
2021/07/31 05:25:20;;;;;;;5.53;4.43;;;21.40;91.20;;;;;;4985995;28;20026;-60
2021/07/31 05:27:46;;;;;;;6.28;4.32;;;21.40;91.20;;;;;;4988705;28;20034;-60
2021/07/31 05:30:12;;;;;;;6.03;4.20;;;21.40;91.20;;;;;;4983747;28;20022;-60
2021/07/31 05:32:37;;;;;;;11.23;4.93;;;21.40;91.20;;;;;;4984971;28;20035;-60
2021/07/31 05:35:03;;;;;;;7.68;4.85;;;21.40;91.20;;;;;;4983478;28;20019;-60
2021/07/31 05:37:31;;;;;;;6.00;4.65;;;21.40;91.20;;;;;;4983235;28;20113;-61
2021/07/31 05:39:57;;;;;;;7.82;5.18;;;21.50;91.10;;;;;;4984931;28;20121;-59
2021/07/31 05:42:23;;;;;;;7.45;4.82;;;21.50;91.10;;;;;;4984896;28;20125;-60
2021/07/31 05:44:48;;;;;;;5.32;4.50;;;21.40;91.10;;;;;;4984767;28;20137;-59
2021/07/31 05:47:14;;;;;;;5.45;4.55;;;21.40;91.00;;;;;;4983709;28;20473;-60
2021/07/31 05:49:39;;;;;;;4.75;4.28;;;21.40;91.00;;;;;;4983723;28;20034;-60
2021/07/31 05:52:05;;;;;;;5.28;4.78;;;21.40;91.00;;;;;;4982590;28;20054;-60
2021/07/31 05:54:31;;;;;;;5.75;4.30;;;21.40;91.00;;;;;;4983406;28;20177;-60
2021/07/31 05:56:56;;;;;;;7.65;4.43;;;21.40;91.00;;;;;;4981778;28;20037;-60
2021/07/31 05:59:22;;;;;;;5.63;4.68;;;21.40;91.00;;;;;;4984157;28;20022;-59
2021/07/31 06:01:47;;;;;;;5.43;4.43;;;21.40;91.00;;;;;;4984216;28;20454;-60
2021/07/31 06:04:13;;;;;;;5.13;4.28;;;21.40;91.00;;;;;;4982041;28;20030;-59
2021/07/31 06:06:38;;;;;;;4.55;3.95;;;21.40;90.90;;;;;;4980252;28;20502;-60
2021/07/31 06:09:04;;;;;;;5.50;3.72;;;21.40;90.90;;;;;;4984391;28;20096;-60
2021/07/31 06:11:29;;;;;;;7.15;4.18;;;21.40;90.90;;;;;;4984777;28;20101;-60
2021/07/31 06:13:55;;;;;;;4.82;4.18;;;21.40;90.80;;;;;;4984490;28;20022;-59
2021/07/31 06:16:20;;;;;;;7.10;3.95;;;21.40;90.80;;;;;;4982667;28;20049;-60
2021/07/31 06:18:46;;;;;;;4.85;4.22;;;21.40;90.70;;;;;;4983095;28;20663;-60
2021/07/31 06:21:16;;;;;;;5.63;3.95;;;21.40;90.50;;;;;;4980544;28;20030;-60
2021/07/31 06:23:42;;;;;;;7.10;4.20;;;21.40;90.40;;;;;;4965278;28;20398;-60
2021/07/31 06:26:08;;;;;;;4.38;3.80;;;21.40;90.30;;;;;;4982114;28;20042;-60
2021/07/31 06:28:34;;;;;;;6.57;3.95;;;21.40;90.30;;;;;;4982816;28;20023;-60
2021/07/31 06:30:59;;;;;;;5.65;3.90;;;21.40;90.20;;;;;;4982621;28;20039;-60
2021/07/31 06:33:25;;;;;;;3.95;3.50;;;21.40;90.10;;;;;;4982809;28;20027;-60
2021/07/31 06:35:50;;;;;;;3.90;3.50;;;21.40;90.00;;;;;;4980845;28;20757;-60
2021/07/31 06:38:16;;;;;;;5.05;3.42;;;21.40;90.20;;;;;;4983709;28;20458;-60
2021/07/31 06:40:43;;;;;;;5.97;3.65;;;21.40;89.70;;;;;;4982696;28;20442;-60
2021/07/31 06:43:08;;;;;;;3.35;3.05;;;21.40;89.60;;;;;;4981227;28;20908;-60
2021/07/31 06:45:34;;;;;;;5.45;3.38;;;21.40;89.20;;;;;;4983262;28;20104;-60
2021/07/31 06:47:59;;;;;;;5.20;3.22;;;21.40;89.00;;;;;;4982102;28;20093;-60
2021/07/31 06:50:25;;;;;;;6.50;3.63;;;21.40;88.90;;;;;;4982579;28;20022;-60
2021/07/31 06:52:50;;;;;;;6.30;3.38;;;21.40;88.60;;;;;;4981355;28;20431;-60
2021/07/31 06:55:16;;;;;;;4.50;2.85;;;21.40;88.50;;;;;;4981447;28;20054;-60
2021/07/31 06:57:41;;;;;;;7.07;3.47;;;21.50;88.40;;;;;;4981224;28;20192;-60
2021/07/31 07:00:07;;;;;;;4.43;3.22;;;21.50;88.20;;;;;;4981706;28;20114;-60
2021/07/31 07:02:33;;;;;;;6.22;3.10;;;21.50;88.10;;;;;;4982327;28;20113;-60
2021/07/31 07:04:58;;;;;;;3.35;3.05;;;21.50;88.00;;;;;;4982139;28;20133;-60
2021/07/31 07:07:24;;;;;;;7.03;3.38;;;21.50;87.60;;;;;;4980929;28;20473;-61
2021/07/31 07:09:49;;;;;;;5.38;3.50;;;21.50;87.10;;;;;;4982352;28;20049;-60
2021/07/31 07:12:15;;;;;;;5.65;3.03;;;21.50;87.00;;;;;;4983041;28;20034;-60
2021/07/31 07:14:40;;;;;;;3.53;2.83;;;21.50;86.80;;;;;;4981383;28;20057;-60
2021/07/31 07:17:06;;;;;;;4.40;2.65;;;21.50;86.50;;;;;;4978847;28;20394;-60
2021/07/31 07:19:32;;;;;;;3.88;3.00;;;21.50;86.40;;;;;;4979405;28;20030;-60
2021/07/31 07:21:57;;;;;;;4.50;2.95;;;21.50;86.30;;;;;;4978847;28;20053;-60
2021/07/31 07:24:23;;;;;;;3.67;2.83;;;21.50;86.30;;;;;;4982131;28;20065;-60
2021/07/31 07:26:48;;;;;;;4.10;2.75;;;21.50;86.20;;;;;;4983528;28;20026;-60
2021/07/31 07:29:14;;;;;;;5.75;2.63;;;21.50;85.90;;;;;;4981850;28;20632;-60
2021/07/31 07:31:40;;;;;;;3.85;2.67;;;21.50;85.90;;;;;;4981767;28;20026;-60
2021/07/31 07:34:05;;;;;;;5.25;2.75;;;21.50;85.70;;;;;;4979492;28;20054;-60
2021/07/31 07:36:31;;;;;;;2.97;2.50;;;21.50;85.60;;;;;;4980031;28;20129;-60
2021/07/31 07:38:56;;;;;;;5.95;2.60;;;21.50;85.10;;;;;;4979814;28;20750;-60
2021/07/31 07:41:22;;;;;;;4.85;2.88;;;21.50;84.60;;;;;;4982646;28;20096;-60
2021/07/31 07:43:47;;;;;;;4.20;2.55;;;21.50;84.10;;;;;;4980036;28;20073;-59
2021/07/31 07:46:16;;;;;;;6.13;2.67;;;21.50;83.90;;;;;;4981477;28;20035;-60
2021/07/31 07:48:43;;;;;;;4.57;2.50;;;21.50;83.30;;;;;;4982752;28;20085;-60
2021/07/31 07:51:08;;;;;;;6.50;2.60;;;21.40;82.80;;;;;;4981405;28;20114;-60
2021/07/31 07:53:34;;;;;;;3.85;2.10;;;21.40;82.20;;;;;;4982426;28;20116;-59
2021/07/31 07:55:59;;;;;;;3.28;2.15;;;21.40;81.50;;;;;;4989242;28;20036;-59
2021/07/31 07:58:25;;;;;;;3.92;1.92;;;21.40;81.20;;;;;;4985166;28;20042;-60
2021/07/31 08:00:50;;;;;;;5.13;2.17;;;21.40;80.80;;;;;;4986716;28;20093;-60
2021/07/31 08:03:16;;;;;;;6.53;2.22;;;21.40;80.80;;;;;;4988113;28;20472;-60
2021/07/31 08:05:41;;;;;;;4.10;2.15;;;21.40;80.30;;;;;;4987700;28;20826;-60
2021/07/31 08:08:07;;;;;;;2.80;2.10;;;21.30;80.00;;;;;;4991294;28;20049;-59
2021/07/31 08:10:33;;;;;;;5.72;2.58;;;21.30;79.50;;;;;;4986141;28;20570;-60
2021/07/31 08:12:58;;;;;;;7.43;2.40;;;21.30;79.50;;;;;;4985796;28;20038;-60
2021/07/31 08:15:24;;;;;;;10.88;2.42;;;21.30;79.60;;;;;;4988653;28;20118;-60
2021/07/31 08:17:49;;;;;;;4.00;2.10;;;21.30;79.40;;;;;;4987496;28;20038;-60
2021/07/31 08:20:15;;;;;;;6.45;2.22;;;21.30;79.30;;;;;;4988483;28;20054;-60
2021/07/31 08:22:40;;;;;;;13.05;2.65;;;21.30;79.20;;;;;;4985393;28;20074;-60
2021/07/31 08:25:07;;;;;;;18.65;2.83;;;21.30;78.50;;;;;;4983669;28;20390;-60
2021/07/31 08:27:33;;;;;;;17.45;3.20;;;21.30;78.60;;;;;;4973465;28;20022;-60
2021/07/31 08:29:58;;;;;;;11.13;2.78;;;21.20;78.60;;;;;;4984688;28;20109;-60
2021/07/31 08:32:24;;;;;;;21.88;3.80;;;21.30;78.80;;;;;;4967320;28;20398;-60
2021/07/31 08:34:50;;;;;;;22.85;3.42;;;21.30;78.60;;;;;;4986736;28;20053;-60
2021/07/31 08:37:16;;;;;;;21.02;3.25;;;21.30;78.00;;;;;;4985934;28;20125;-60
2021/07/31 08:39:41;;;;;;;16.20;3.25;;;21.30;77.90;;;;;;4987576;28;20548;-60
2021/07/31 08:42:07;;;;;;;33.97;4.20;;;21.30;78.50;;;;;;4988081;28;20474;-60
2021/07/31 08:44:34;;;;;;;30.10;4.00;;;21.30;78.50;;;;;;4986544;28;20088;-65
2021/07/31 08:47:00;;;;;;;34.55;4.50;;;21.30;78.50;;;;;;4987988;28;20490;-60
2021/07/31 08:49:25;;;;;;;28.45;3.42;;;21.30;78.50;;;;;;4969324;28;20050;-62
2021/07/31 08:51:50;;;;;;;25.33;3.80;;;21.30;78.00;;;;;;4986481;28;20069;-60
2021/07/31 08:54:16;;;;;;;18.70;3.45;;;21.30;77.90;;;;;;4985656;28;20103;-63
2021/07/31 08:56:42;;;;;;;30.60;4.90;;;21.40;78.00;;;;;;4985118;28;20034;-61
2021/07/31 08:59:08;;;;;;;25.90;3.28;;;21.50;77.60;;;;;;4986755;28;20046;-60
2021/07/31 09:01:33;;;;;;;26.33;4.65;;;21.40;77.60;;;;;;4987932;28;20036;-60
2021/07/31 09:04:15;;;;;;;31.92;4.35;;;21.40;77.50;;;;;;4985946;28;20077;-59
2021/07/31 09:06:40;;;;;;;19.05;3.63;;;21.40;77.40;;;;;;4981751;28;20053;-59
2021/07/31 09:09:06;;;;;;;30.83;5.43;;;21.40;77.70;;;;;;4980863;28;20922;-60
2021/07/31 09:11:32;;;;;;;62.13;6.05;;;21.50;77.10;;;;;;4982754;28;20034;-60
2021/07/31 09:14:10;;;;;;;48.90;5.50;;;21.50;77.20;;;;;;4983912;28;20034;-60
2021/07/31 09:16:36;;;;;;;75.78;9.65;;;21.50;77.40;;;;;;4984415;28;20129;-61
2021/07/31 09:19:04;;;;;;;36.22;5.97;;;21.60;77.50;;;;;;4981958;28;20030;-60
2021/07/31 09:21:29;;;;;;;45.65;5.95;;;21.60;77.70;;;;;;4983119;28;20036;-59
2021/07/31 09:23:55;;;;;;;82.10;7.25;;;21.60;77.70;;;;;;4983310;28;20038;-60
2021/07/31 09:26:25;;;;;;;47.28;6.70;;;21.60;77.70;;;;;;4984080;28;20442;-60
2021/07/31 09:29:02;;;;;;;125.47;11.32;;;21.70;77.40;;;;;;4983194;28;20030;-60
2021/07/31 09:31:27;;;;;;;71.50;8.82;;;21.70;77.40;;;;;;4981646;28;20359;-60
2021/07/31 09:33:53;;;;;;;61.30;7.82;;;21.80;77.30;;;;;;4984336;28;20321;-60
2021/07/31 09:36:19;;;;;;;81.70;11.45;;;21.90;77.50;;;;;;4982600;28;20496;-60
2021/07/31 09:38:49;;;;;;;88.10;7.50;;;21.80;77.30;;;;;;4983232;28;20136;-60
2021/07/31 09:41:20;;;;;;;56.55;6.72;;;21.90;77.20;;;;;;4983539;28;20042;-60
2021/07/31 09:44:10;;;;;;;66.75;7.97;;;21.90;76.90;;;;;;4983472;28;20042;-60
2021/07/31 09:46:38;;;;;;;101.50;11.05;;;21.90;77.10;;;;;;4972000;28;20125;-60
2021/07/31 09:49:05;;;;;;;64.78;7.40;;;21.90;77.00;;;;;;4983621;28;20126;-60
2021/07/31 09:51:38;;;;;;;70.90;8.75;;;22.00;76.70;;;;;;4979498;28;20547;-60
2021/07/31 09:54:06;;;;;;;94.68;9.13;;;22.00;76.60;;;;;;4981120;28;20037;-60
2021/07/31 09:56:36;;;;;;;90.70;9.35;;;22.00;76.40;;;;;;4981006;28;20093;-60
2021/07/31 09:59:01;;;;;;;63.25;7.80;;;22.00;76.40;;;;;;4964057;28;20129;-60
2021/07/31 10:01:27;;;;;;;59.75;7.30;;;22.00;76.30;;;;;;4980468;28;20526;-60
2021/07/31 10:03:54;;;;;;;89.93;10.23;;;22.00;76.20;;;;;;4982490;28;20382;-60
2021/07/31 10:06:20;;;;;;;58.65;6.07;;;22.00;76.40;;;;;;4984111;28;20015;-60
2021/07/31 10:08:46;;;;;;;48.67;5.63;;;22.10;76.70;;;;;;4979792;28;20069;-60
2021/07/31 10:11:12;;;;;;;39.53;5.90;;;22.10;76.50;;;;;;4980883;28;20533;-61
2021/07/31 10:13:37;;;;;;;52.53;6.47;;;22.10;76.30;;;;;;4997909;28;20034;-59
2021/07/31 10:16:03;;;;;;;35.95;5.05;;;22.20;76.10;;;;;;4981026;28;20298;-60
2021/07/31 10:18:29;;;;;;;35.15;5.30;;;22.20;76.10;;;;;;4983798;28;20169;-60
2021/07/31 10:20:54;;;;;;;43.47;5.13;;;22.30;75.90;;;;;;4983690;28;20034;-60
2021/07/31 10:23:54;;;;;;;40.15;4.68;;;22.30;75.80;;;;;;4982104;28;20054;-59
2021/07/31 10:26:20;;;;;;;45.58;5.55;;;22.40;75.40;;;;;;4983348;28;20030;-60
2021/07/31 10:28:45;;;;;;;51.70;6.15;;;22.50;75.00;;;;;;4984838;28;20154;-60
2021/07/31 10:31:29;;;;;;;36.72;5.13;;;22.40;75.00;;;;;;4982524;28;20048;-60
2021/07/31 10:33:55;;;;;;;37.13;4.75;;;22.50;74.80;;;;;;4982776;28;20091;-60
2021/07/31 10:36:34;;;;;;;42.88;6.22;;;22.50;74.80;;;;;;4981444;28;20130;-60
2021/07/31 10:39:20;;;;;;;61.72;6.55;;;22.50;74.70;;;;;;4981597;28;20049;-60
2021/07/31 10:41:58;;;;;;;55.95;6.28;;;22.50;74.70;;;;;;4981933;28;20084;-60
2021/07/31 10:44:24;;;;;;;42.13;6.03;;;22.50;74.40;;;;;;4983227;28;20026;-60
2021/07/31 10:46:51;;;;;;;86.97;8.93;;;22.50;74.40;;;;;;4980332;28;20042;-61
2021/07/31 10:49:35;;;;;;;50.60;5.32;;;22.60;74.40;;;;;;4979240;28;20141;-60
2021/07/31 10:52:01;;;;;;;28.98;5.00;;;22.60;74.00;;;;;;4982636;28;20042;-60
2021/07/31 10:54:59;;;;;;;38.85;4.65;;;22.60;73.70;;;;;;4977317;28;20038;-60
2021/07/31 10:57:53;;;;;;;28.95;4.53;;;22.70;73.90;;;;;;4957840;28;20085;-64
2021/07/31 11:00:25;;;;;;;41.00;5.22;;;22.70;74.00;;;;;;4980878;28;20030;-60
2021/07/31 11:02:51;;;;;;;36.53;4.53;;;22.70;73.80;;;;;;4977194;28;20038;-60
2021/07/31 11:05:16;;;;;;;45.03;5.13;;;22.80;73.90;;;;;;4978707;28;20045;-60
2021/07/31 11:07:57;;;;;;;31.73;5.35;;;22.80;73.90;;;;;;4980968;28;20038;-60
2021/07/31 11:10:35;;;;;;;24.73;4.47;;;22.90;73.50;;;;;;4980093;28;20022;-60
2021/07/31 11:13:00;;;;;;;343.05;31.60;;;22.90;73.70;;;;;;4980017;28;20508;-60
2021/07/31 11:15:26;;;;;;;61.42;6.07;;;22.90;73.30;;;;;;4978858;28;20038;-60
2021/07/31 11:17:59;;;;;;;55.42;5.22;;;23.00;73.30;;;;;;4977497;28;20069;-60
2021/07/31 11:20:25;;;;;;;43.38;5.30;;;23.00;73.50;;;;;;4976678;28;20049;-60
2021/07/31 11:22:52;;;;;;;37.50;4.57;;;23.00;73.40;;;;;;4982522;28;20038;-60
2021/07/31 11:25:18;;;;;;;48.08;5.53;;;23.00;73.10;;;;;;4983082;28;20385;-60
2021/07/31 11:27:55;;;;;;;59.78;6.57;;;23.10;73.00;;;;;;4979156;28;20038;-62
2021/07/31 11:30:21;;;;;;;89.03;9.32;;;23.20;73.00;;;;;;4980343;28;20078;-60
2021/07/31 11:32:47;;;;;;;56.08;7.97;;;23.20;72.80;;;;;;4980831;28;20050;-60
2021/07/31 11:35:25;;;;;;;66.60;7.57;;;23.30;72.80;;;;;;4997452;28;20038;-60
2021/07/31 11:37:51;;;;;;;50.35;7.72;;;23.40;72.60;;;;;;4979212;28;20049;-60
2021/07/31 11:40:16;;;;;;;74.47;9.25;;;23.40;72.30;;;;;;4981408;28;20038;-60
2021/07/31 11:42:42;;;;;;;70.82;7.90;;;23.50;71.90;;;;;;4978923;28;20077;-60
2021/07/31 11:45:08;;;;;;;72.85;8.13;;;23.50;72.10;;;;;;4981165;28;20445;-60
2021/07/31 11:47:33;;;;;;;68.00;8.85;;;23.60;71.90;;;;;;4981541;28;20066;-60
2021/07/31 11:50:09;;;;;;;85.55;10.18;;;23.60;71.80;;;;;;4977713;28;20081;-60
2021/07/31 11:52:34;;;;;;;152.02;18.58;;;23.60;71.80;;;;;;4979888;28;20039;-60
2021/07/31 11:55:00;;;;;;;74.75;9.43;;;23.60;72.00;;;;;;4980876;28;20385;-60
2021/07/31 11:57:25;;;;;;;76.00;8.63;;;23.70;72.00;;;;;;4980891;28;20129;-60
2021/07/31 11:59:51;;;;;;;58.85;7.82;;;23.70;71.90;;;;;;4964324;28;20513;-60
2021/07/31 12:02:34;;;;;;;72.40;9.40;;;23.70;71.90;;;;;;4963540;28;20030;-60
2021/07/31 12:04:59;;;;;;;106.93;11.93;;;23.70;71.90;;;;;;4996536;28;20043;-61
2021/07/31 12:07:25;;;;;;;80.47;11.05;;;23.70;71.90;;;;;;4978389;28;20027;-61
2021/07/31 12:09:57;;;;;;;79.88;9.07;;;23.70;71.90;;;;;;4981835;28;20014;-60
2021/07/31 12:12:23;;;;;;;84.43;9.32;;;23.80;71.90;;;;;;4979516;28;20105;-60
2021/07/31 12:15:14;;;;;;;124.15;12.85;;;23.80;72.00;;;;;;4996555;28;20050;-61
2021/07/31 12:17:42;;;;;;;88.68;10.68;;;23.90;72.00;;;;;;4981685;28;20069;-60
2021/07/31 12:20:08;;;;;;;100.28;11.05;;;23.90;72.00;;;;;;4979942;28;20093;-60
2021/07/31 12:22:34;;;;;;;76.78;9.52;;;23.90;71.80;;;;;;4977239;28;20073;-60
2021/07/31 12:25:08;;;;;;;75.15;8.57;;;24.10;71.80;;;;;;4979584;28;20053;-60
2021/07/31 12:27:53;;;;;;;90.55;9.82;;;23.90;71.10;;;;;;4965169;28;20049;-60
2021/07/31 12:30:27;;;;;;;80.03;10.20;;;23.90;71.20;;;;;;4982489;28;20030;-60
2021/07/31 12:32:53;;;;;;;65.47;9.50;;;23.90;71.20;;;;;;4979854;28;20034;-60
2021/07/31 12:35:43;;;;;;;88.78;9.38;;;24.00;70.90;;;;;;4980631;28;20034;-60
2021/07/31 12:38:10;;;;;;;98.82;10.50;;;24.00;70.90;;;;;;4979583;28;20050;-60
2021/07/31 12:40:37;;;;;;;101.20;9.65;;;24.00;70.60;;;;;;4982345;28;20034;-61